sensor_id;sensor_type;location;lat;lon;timestamp;pressure;altitude;pressure_sealevel;temperature;humidity
31299;BME280;17927;52.350;13.402;2023-06-04T00:00:21;101783.69;;;17.04;30.41
31299;BME280;17927;52.350;13.402;2023-06-04T00:02:46;101777.69;;;17.01;30.57
31299;BME280;17927;52.350;13.402;2023-06-04T00:05:12;101775.97;;;17.00;30.16
31299;BME280;17927;52.350;13.402;2023-06-04T00:07:37;101776.13;;;16.98;30.25
31299;BME280;17927;52.350;13.402;2023-06-04T00:10:04;101770.84;;;16.97;30.41
31299;BME280;17927;52.350;13.402;2023-06-04T00:12:29;101774.59;;;16.96;30.32
31299;BME280;17927;52.350;13.402;2023-06-04T00:14:55;101767.53;;;16.93;30.24
31299;BME280;17927;52.350;13.402;2023-06-04T00:17:20;101761.38;;;16.91;29.98
31299;BME280;17927;52.350;13.402;2023-06-04T00:19:45;101767.19;;;16.88;30.06
31299;BME280;17927;52.350;13.402;2023-06-04T00:22:10;101766.31;;;16.87;29.92
31299;BME280;17927;52.350;13.402;2023-06-04T00:24:38;101769.19;;;16.86;30.27
31299;BME280;17927;52.350;13.402;2023-06-04T00:27:04;101756.72;;;16.83;30.14
31299;BME280;17927;52.350;13.402;2023-06-04T00:29:30;101759.63;;;16.82;30.43
31299;BME280;17927;52.350;13.402;2023-06-04T00:31:55;101764.38;;;16.80;30.13
31299;BME280;17927;52.350;13.402;2023-06-04T00:34:20;101752.94;;;16.76;30.13
31299;BME280;17927;52.350;13.402;2023-06-04T00:36:46;101749.69;;;16.72;30.09
31299;BME280;17927;52.350;13.402;2023-06-04T00:39:11;101746.38;;;16.69;29.99
31299;BME280;17927;52.350;13.402;2023-06-04T00:41:37;101752.00;;;16.67;30.04
31299;BME280;17927;52.350;13.402;2023-06-04T00:44:02;101753.03;;;16.66;30.05
31299;BME280;17927;52.350;13.402;2023-06-04T00:46:31;101748.59;;;16.65;30.17
31299;BME280;17927;52.350;13.402;2023-06-04T00:48:56;101751.47;;;16.64;30.27
31299;BME280;17927;52.350;13.402;2023-06-04T00:51:22;101745.47;;;16.60;30.36
31299;BME280;17927;52.350;13.402;2023-06-04T00:53:49;101745.63;;;16.58;30.81
31299;BME280;17927;52.350;13.402;2023-06-04T00:56:15;101746.97;;;16.54;31.16
31299;BME280;17927;52.350;13.402;2023-06-04T00:58:40;101744.88;;;16.48;31.22
31299;BME280;17927;52.350;13.402;2023-06-04T01:01:12;101745.50;;;16.42;31.68
31299;BME280;17927;52.350;13.402;2023-06-04T01:03:42;101749.00;;;16.34;31.59
31299;BME280;17927;52.350;13.402;2023-06-04T01:06:21;101740.91;;;16.24;31.88
31299;BME280;17927;52.350;13.402;2023-06-04T01:08:49;101738.84;;;16.18;31.77
31299;BME280;17927;52.350;13.402;2023-06-04T01:11:19;101741.84;;;15.97;31.42
31299;BME280;17927;52.350;13.402;2023-06-04T01:13:44;101737.56;;;15.94;31.55
31299;BME280;17927;52.350;13.402;2023-06-04T01:16:10;101742.16;;;15.94;31.76
31299;BME280;17927;52.350;13.402;2023-06-04T01:18:38;101747.94;;;15.91;31.93
31299;BME280;17927;52.350;13.402;2023-06-04T01:21:06;101744.06;;;15.83;32.25
31299;BME280;17927;52.350;13.402;2023-06-04T01:23:49;101738.22;;;15.78;32.45
31299;BME280;17927;52.350;13.402;2023-06-04T01:26:24;101743.72;;;15.68;32.22
31299;BME280;17927;52.350;13.402;2023-06-04T01:28:51;101737.03;;;15.63;32.31
31299;BME280;17927;52.350;13.402;2023-06-04T01:31:17;101741.06;;;15.59;32.58
31299;BME280;17927;52.350;13.402;2023-06-04T01:33:43;101738.09;;;15.52;32.66
31299;BME280;17927;52.350;13.402;2023-06-04T01:36:08;101740.56;;;15.45;32.82
31299;BME280;17927;52.350;13.402;2023-06-04T01:38:35;101739.16;;;15.41;32.56
31299;BME280;17927;52.350;13.402;2023-06-04T01:41:00;101739.44;;;15.38;32.94
31299;BME280;17927;52.350;13.402;2023-06-04T01:43:27;101738.03;;;15.34;32.84
31299;BME280;17927;52.350;13.402;2023-06-04T01:45:52;101746.50;;;15.31;32.88
31299;BME280;17927;52.350;13.402;2023-06-04T01:48:19;101741.38;;;15.28;33.10
31299;BME280;17927;52.350;13.402;2023-06-04T01:50:44;101739.94;;;15.23;32.82
31299;BME280;17927;52.350;13.402;2023-06-04T01:53:10;101743.13;;;15.19;32.87
31299;BME280;17927;52.350;13.402;2023-06-04T01:55:35;101736.53;;;15.12;32.93
31299;BME280;17927;52.350;13.402;2023-06-04T01:58:00;101738.44;;;15.01;33.16
31299;BME280;17927;52.350;13.402;2023-06-04T02:00:26;101742.91;;;14.92;33.28
31299;BME280;17927;52.350;13.402;2023-06-04T02:02:51;101735.66;;;14.83;33.30
31299;BME280;17927;52.350;13.402;2023-06-04T02:05:17;101737.22;;;14.76;33.41
31299;BME280;17927;52.350;13.402;2023-06-04T02:07:44;101734.25;;;14.69;33.75
31299;BME280;17927;52.350;13.402;2023-06-04T02:12:37;101730.78;;;14.57;33.89
31299;BME280;17927;52.350;13.402;2023-06-04T02:15:03;101737.66;;;14.52;34.22
31299;BME280;17927;52.350;13.402;2023-06-04T02:17:29;101735.53;;;14.45;34.04
31299;BME280;17927;52.350;13.402;2023-06-04T02:19:57;101735.28;;;14.39;34.49
31299;BME280;17927;52.350;13.402;2023-06-04T02:22:24;101730.25;;;14.34;34.46
31299;BME280;17927;52.350;13.402;2023-06-04T02:24:49;101729.84;;;14.29;34.24
31299;BME280;17927;52.350;13.402;2023-06-04T02:27:14;101722.97;;;14.25;34.32
31299;BME280;17927;52.350;13.402;2023-06-04T02:29:40;101722.25;;;14.23;34.40
31299;BME280;17927;52.350;13.402;2023-06-04T02:32:07;101726.25;;;14.19;34.30
31299;BME280;17927;52.350;13.402;2023-06-04T02:34:32;101723.84;;;14.15;34.27
31299;BME280;17927;52.350;13.402;2023-06-04T02:36:59;101724.22;;;14.11;34.67
31299;BME280;17927;52.350;13.402;2023-06-04T02:39:25;101718.25;;;14.07;34.70
31299;BME280;17927;52.350;13.402;2023-06-04T02:41:50;101727.66;;;14.03;34.71
31299;BME280;17927;52.350;13.402;2023-06-04T02:44:15;101729.69;;;14.01;35.11
31299;BME280;17927;52.350;13.402;2023-06-04T02:46:41;101729.09;;;13.97;35.15
31299;BME280;17927;52.350;13.402;2023-06-04T02:49:06;101726.66;;;13.94;34.88
31299;BME280;17927;52.350;13.402;2023-06-04T02:51:31;101731.69;;;13.89;35.11
31299;BME280;17927;52.350;13.402;2023-06-04T02:53:57;101738.38;;;13.85;34.89
31299;BME280;17927;52.350;13.402;2023-06-04T02:56:22;101746.06;;;13.80;35.01
31299;BME280;17927;52.350;13.402;2023-06-04T02:58:54;101744.78;;;13.74;35.46
31299;BME280;17927;52.350;13.402;2023-06-04T03:01:21;101739.94;;;13.68;35.26
31299;BME280;17927;52.350;13.402;2023-06-04T03:03:47;101746.63;;;13.64;35.42
31299;BME280;17927;52.350;13.402;2023-06-04T03:06:13;101740.91;;;13.57;35.64
31299;BME280;17927;52.350;13.402;2023-06-04T03:08:39;101748.47;;;13.53;35.86
31299;BME280;17927;52.350;13.402;2023-06-04T03:11:05;101744.41;;;13.48;35.99
31299;BME280;17927;52.350;13.402;2023-06-04T03:13:30;101744.72;;;13.45;35.73
31299;BME280;17927;52.350;13.402;2023-06-04T03:15:55;101740.56;;;13.40;35.75
31299;BME280;17927;52.350;13.402;2023-06-04T03:18:21;101750.53;;;13.40;36.08
31299;BME280;17927;52.350;13.402;2023-06-04T03:20:47;101745.38;;;13.37;36.03
31299;BME280;17927;52.350;13.402;2023-06-04T03:23:13;101751.66;;;13.37;36.20
31299;BME280;17927;52.350;13.402;2023-06-04T03:25:38;101746.38;;;13.36;36.24
31299;BME280;17927;52.350;13.402;2023-06-04T03:28:03;101758.06;;;13.36;36.31
31299;BME280;17927;52.350;13.402;2023-06-04T03:30:28;101752.38;;;13.39;36.66
31299;BME280;17927;52.350;13.402;2023-06-04T03:32:54;101750.53;;;13.40;36.67
31299;BME280;17927;52.350;13.402;2023-06-04T03:35:19;101744.84;;;13.43;36.48
31299;BME280;17927;52.350;13.402;2023-06-04T03:37:44;101760.84;;;13.46;36.75
31299;BME280;17927;52.350;13.402;2023-06-04T03:40:10;101751.44;;;13.50;37.11
31299;BME280;17927;52.350;13.402;2023-06-04T03:42:36;101758.44;;;13.53;37.13
31299;BME280;17927;52.350;13.402;2023-06-04T03:45:01;101761.63;;;13.58;36.93
31299;BME280;17927;52.350;13.402;2023-06-04T03:47:26;101756.91;;;13.60;36.90
31299;BME280;17927;52.350;13.402;2023-06-04T03:49:52;101755.91;;;13.61;36.96
31299;BME280;17927;52.350;13.402;2023-06-04T03:52:17;101757.34;;;13.65;37.08
31299;BME280;17927;52.350;13.402;2023-06-04T03:54:42;101750.78;;;13.68;36.90
31299;BME280;17927;52.350;13.402;2023-06-04T03:57:07;101754.09;;;13.72;37.14
31299;BME280;17927;52.350;13.402;2023-06-04T03:59:32;101755.22;;;13.79;37.28
31299;BME280;17927;52.350;13.402;2023-06-04T04:01:58;101751.81;;;13.86;37.12
31299;BME280;17927;52.350;13.402;2023-06-04T04:04:23;101754.69;;;13.95;37.23
31299;BME280;17927;52.350;13.402;2023-06-04T04:06:48;101747.56;;;14.04;37.26
31299;BME280;17927;52.350;13.402;2023-06-04T04:09:13;101743.97;;;14.13;37.20
31299;BME280;17927;52.350;13.402;2023-06-04T04:11:39;101746.84;;;14.21;37.26
31299;BME280;17927;52.350;13.402;2023-06-04T04:14:04;101749.41;;;14.32;37.04
31299;BME280;17927;52.350;13.402;2023-06-04T04:16:30;101755.69;;;14.43;37.32
31299;BME280;17927;52.350;13.402;2023-06-04T04:18:55;101757.56;;;14.52;37.45
31299;BME280;17927;52.350;13.402;2023-06-04T04:21:20;101758.41;;;14.62;37.19
31299;BME280;17927;52.350;13.402;2023-06-04T04:23:46;101756.56;;;14.73;37.23
31299;BME280;17927;52.350;13.402;2023-06-04T04:26:11;101759.25;;;14.83;37.43
31299;BME280;17927;52.350;13.402;2023-06-04T04:28:41;101760.13;;;14.93;37.41
31299;BME280;17927;52.350;13.402;2023-06-04T04:31:06;101757.34;;;15.03;37.52
31299;BME280;17927;52.350;13.402;2023-06-04T04:33:35;101756.19;;;15.15;37.35
31299;BME280;17927;52.350;13.402;2023-06-04T04:36:04;101758.00;;;15.25;37.33
31299;BME280;17927;52.350;13.402;2023-06-04T04:38:30;101761.53;;;15.35;37.50
31299;BME280;17927;52.350;13.402;2023-06-04T04:40:58;101759.47;;;15.47;37.48
31299;BME280;17927;52.350;13.402;2023-06-04T04:43:33;101759.13;;;15.60;37.46
31299;BME280;17927;52.350;13.402;2023-06-04T04:45:59;101758.91;;;15.71;37.19
31299;BME280;17927;52.350;13.402;2023-06-04T04:48:25;101755.97;;;15.82;37.28
31299;BME280;17927;52.350;13.402;2023-06-04T04:50:51;101761.94;;;15.96;37.70
31299;BME280;17927;52.350;13.402;2023-06-04T04:53:16;101759.13;;;16.06;37.31
31299;BME280;17927;52.350;13.402;2023-06-04T04:55:41;101766.22;;;16.17;36.99
31299;BME280;17927;52.350;13.402;2023-06-04T04:58:06;101762.25;;;16.29;36.91
31299;BME280;17927;52.350;13.402;2023-06-04T05:00:32;101760.31;;;16.39;36.87
31299;BME280;17927;52.350;13.402;2023-06-04T05:02:57;101764.69;;;16.50;36.76
31299;BME280;17927;52.350;13.402;2023-06-04T05:05:22;101764.56;;;16.60;36.57
31299;BME280;17927;52.350;13.402;2023-06-04T05:07:48;101766.88;;;16.73;36.64
31299;BME280;17927;52.350;13.402;2023-06-04T05:10:13;101764.91;;;16.83;36.65
31299;BME280;17927;52.350;13.402;2023-06-04T05:12:38;101774.69;;;16.94;36.59
31299;BME280;17927;52.350;13.402;2023-06-04T05:15:04;101769.88;;;17.06;36.55
31299;BME280;17927;52.350;13.402;2023-06-04T05:17:29;101771.47;;;17.17;36.63
31299;BME280;17927;52.350;13.402;2023-06-04T05:19:57;101767.63;;;17.28;36.60
31299;BME280;17927;52.350;13.402;2023-06-04T05:22:29;101771.75;;;17.40;36.76
31299;BME280;17927;52.350;13.402;2023-06-04T05:24:54;101777.94;;;17.50;36.27
31299;BME280;17927;52.350;13.402;2023-06-04T05:27:19;101778.66;;;17.61;35.96
31299;BME280;17927;52.350;13.402;2023-06-04T05:29:45;101778.38;;;17.72;35.79
31299;BME280;17927;52.350;13.402;2023-06-04T05:32:10;101775.53;;;17.82;35.96
31299;BME280;17927;52.350;13.402;2023-06-04T05:34:36;101775.34;;;17.92;35.58
31299;BME280;17927;52.350;13.402;2023-06-04T05:37:01;101781.56;;;18.02;35.72
31299;BME280;17927;52.350;13.402;2023-06-04T05:39:29;101779.72;;;18.11;35.53
31299;BME280;17927;52.350;13.402;2023-06-04T05:41:54;101787.91;;;18.19;35.31
31299;BME280;17927;52.350;13.402;2023-06-04T05:44:19;101787.94;;;18.28;35.37
31299;BME280;17927;52.350;13.402;2023-06-04T05:46:44;101791.38;;;18.38;35.27
31299;BME280;17927;52.350;13.402;2023-06-04T05:49:10;101796.81;;;18.46;34.94
31299;BME280;17927;52.350;13.402;2023-06-04T05:51:35;101781.28;;;18.55;35.00
31299;BME280;17927;52.350;13.402;2023-06-04T05:54:01;101786.56;;;18.65;34.83
31299;BME280;17927;52.350;13.402;2023-06-04T05:56:26;101787.28;;;18.75;34.80
31299;BME280;17927;52.350;13.402;2023-06-04T05:58:52;101786.22;;;18.84;34.80
31299;BME280;17927;52.350;13.402;2023-06-04T06:01:18;101792.41;;;18.95;34.56
31299;BME280;17927;52.350;13.402;2023-06-04T06:03:43;101794.78;;;19.06;35.03
31299;BME280;17927;52.350;13.402;2023-06-04T06:06:08;101789.97;;;19.16;34.69
31299;BME280;17927;52.350;13.402;2023-06-04T06:08:35;101792.50;;;19.26;34.68
31299;BME280;17927;52.350;13.402;2023-06-04T06:11:00;101782.19;;;19.37;34.62
31299;BME280;17927;52.350;13.402;2023-06-04T06:13:29;101795.50;;;19.48;34.01
31299;BME280;17927;52.350;13.402;2023-06-04T06:15:55;101792.56;;;19.58;34.05
31299;BME280;17927;52.350;13.402;2023-06-04T06:18:21;101790.28;;;19.70;34.55
31299;BME280;17927;52.350;13.402;2023-06-04T06:20:46;101797.44;;;19.79;34.38
31299;BME280;17927;52.350;13.402;2023-06-04T06:23:11;101801.91;;;19.88;34.38
31299;BME280;17927;52.350;13.402;2023-06-04T06:25:37;101800.63;;;19.99;34.15
31299;BME280;17927;52.350;13.402;2023-06-04T06:28:05;101800.38;;;20.09;33.93
31299;BME280;17927;52.350;13.402;2023-06-04T06:30:30;101800.16;;;20.19;34.11
31299;BME280;17927;52.350;13.402;2023-06-04T06:32:55;101804.56;;;20.28;33.35
31299;BME280;17927;52.350;13.402;2023-06-04T06:35:21;101816.34;;;20.37;33.21
31299;BME280;17927;52.350;13.402;2023-06-04T06:37:46;101808.03;;;20.45;32.78
31299;BME280;17927;52.350;13.402;2023-06-04T06:40:11;101800.41;;;20.56;32.90
31299;BME280;17927;52.350;13.402;2023-06-04T06:42:37;101814.91;;;20.64;32.63
31299;BME280;17927;52.350;13.402;2023-06-04T06:45:02;101804.53;;;20.75;32.16
31299;BME280;17927;52.350;13.402;2023-06-04T06:47:28;101808.28;;;20.82;32.48
31299;BME280;17927;52.350;13.402;2023-06-04T06:49:53;101806.13;;;20.92;32.04
31299;BME280;17927;52.350;13.402;2023-06-04T06:52:19;101809.47;;;21.03;31.93
31299;BME280;17927;52.350;13.402;2023-06-04T06:54:45;101810.22;;;21.11;31.31
31299;BME280;17927;52.350;13.402;2023-06-04T06:57:11;101803.59;;;21.21;30.83
31299;BME280;17927;52.350;13.402;2023-06-04T06:59:36;101809.84;;;21.29;31.10
31299;BME280;17927;52.350;13.402;2023-06-04T07:02:02;101796.88;;;21.38;31.03
31299;BME280;17927;52.350;13.402;2023-06-04T07:04:27;101802.28;;;21.47;31.03
31299;BME280;17927;52.350;13.402;2023-06-04T07:06:53;101818.50;;;21.56;31.02
31299;BME280;17927;52.350;13.402;2023-06-04T07:09:18;101812.25;;;21.63;30.12
31299;BME280;17927;52.350;13.402;2023-06-04T07:11:43;101813.19;;;21.70;30.02
31299;BME280;17927;52.350;13.402;2023-06-04T07:14:08;101819.81;;;21.75;30.04
31299;BME280;17927;52.350;13.402;2023-06-04T07:16:34;101820.94;;;21.81;30.21
31299;BME280;17927;52.350;13.402;2023-06-04T07:19:01;101814.03;;;21.85;30.54
31299;BME280;17927;52.350;13.402;2023-06-04T07:21:26;101814.13;;;21.92;29.86
31299;BME280;17927;52.350;13.402;2023-06-04T07:23:52;101821.78;;;21.97;29.75
31299;BME280;17927;52.350;13.402;2023-06-04T07:26:17;101818.06;;;22.04;29.62
31299;BME280;17927;52.350;13.402;2023-06-04T07:28:43;101822.59;;;22.12;29.13
31299;BME280;17927;52.350;13.402;2023-06-04T07:31:08;101810.81;;;22.18;28.70
31299;BME280;17927;52.350;13.402;2023-06-04T07:33:33;101815.53;;;22.25;28.59
31299;BME280;17927;52.350;13.402;2023-06-04T07:35:59;101812.00;;;22.31;28.56
31299;BME280;17927;52.350;13.402;2023-06-04T07:38:25;101813.94;;;22.37;27.87
31299;BME280;17927;52.350;13.402;2023-06-04T07:40:50;101808.53;;;22.44;27.71
31299;BME280;17927;52.350;13.402;2023-06-04T07:43:16;101813.28;;;22.50;28.25
31299;BME280;17927;52.350;13.402;2023-06-04T07:45:41;101818.84;;;22.57;28.62
31299;BME280;17927;52.350;13.402;2023-06-04T07:48:06;101814.44;;;22.62;28.82
31299;BME280;17927;52.350;13.402;2023-06-04T07:50:31;101811.31;;;22.65;28.09
31299;BME280;17927;52.350;13.402;2023-06-04T07:52:56;101814.13;;;22.72;28.08
31299;BME280;17927;52.350;13.402;2023-06-04T07:55:22;101803.16;;;22.79;27.48
31299;BME280;17927;52.350;13.402;2023-06-04T07:57:47;101801.31;;;22.86;27.57
31299;BME280;17927;52.350;13.402;2023-06-04T08:00:13;101799.66;;;22.92;27.44
31299;BME280;17927;52.350;13.402;2023-06-04T08:02:39;101808.63;;;23.01;27.67
31299;BME280;17927;52.350;13.402;2023-06-04T08:05:05;101807.16;;;23.05;27.64
31299;BME280;17927;52.350;13.402;2023-06-04T08:07:30;101802.56;;;23.12;27.40
31299;BME280;17927;52.350;13.402;2023-06-04T08:09:56;101812.97;;;23.17;27.57
31299;BME280;17927;52.350;13.402;2023-06-04T08:12:22;101808.56;;;23.22;26.88
31299;BME280;17927;52.350;13.402;2023-06-04T08:14:47;101809.03;;;23.26;26.52
31299;BME280;17927;52.350;13.402;2023-06-04T08:17:12;101802.06;;;23.30;27.27
31299;BME280;17927;52.350;13.402;2023-06-04T08:19:37;101804.66;;;23.38;27.48
31299;BME280;17927;52.350;13.402;2023-06-04T08:22:03;101799.38;;;23.44;27.05
31299;BME280;17927;52.350;13.402;2023-06-04T08:24:28;101798.56;;;23.50;27.15
31299;BME280;17927;52.350;13.402;2023-06-04T08:26:54;101798.81;;;23.55;26.90
31299;BME280;17927;52.350;13.402;2023-06-04T08:29:19;101804.09;;;23.56;26.20
31299;BME280;17927;52.350;13.402;2023-06-04T08:31:44;101800.09;;;23.59;26.16
31299;BME280;17927;52.350;13.402;2023-06-04T08:34:09;101798.84;;;23.62;25.72
31299;BME280;17927;52.350;13.402;2023-06-04T08:36:35;101808.84;;;23.69;25.57
31299;BME280;17927;52.350;13.402;2023-06-04T08:39:00;101813.53;;;23.76;25.66
31299;BME280;17927;52.350;13.402;2023-06-04T08:41:48;101806.97;;;23.83;25.17
31299;BME280;17927;52.350;13.402;2023-06-04T08:44:16;101810.19;;;23.87;25.41
31299;BME280;17927;52.350;13.402;2023-06-04T08:46:43;101810.41;;;23.92;25.03
31299;BME280;17927;52.350;13.402;2023-06-04T08:49:09;101811.53;;;23.98;24.83
31299;BME280;17927;52.350;13.402;2023-06-04T08:51:38;101809.88;;;24.04;25.08
31299;BME280;17927;52.350;13.402;2023-06-04T08:54:05;101820.91;;;24.10;24.92
31299;BME280;17927;52.350;13.402;2023-06-04T08:56:31;101816.47;;;24.16;24.78
31299;BME280;17927;52.350;13.402;2023-06-04T08:59:00;101821.59;;;24.19;24.74
31299;BME280;17927;52.350;13.402;2023-06-04T09:01:30;101816.72;;;24.21;25.33
31299;BME280;17927;52.350;13.402;2023-06-04T09:03:56;101821.59;;;24.26;25.17
31299;BME280;17927;52.350;13.402;2023-06-04T09:06:25;101817.56;;;24.28;24.74
31299;BME280;17927;52.350;13.402;2023-06-04T09:08:50;101809.91;;;24.30;24.48
31299;BME280;17927;52.350;13.402;2023-06-04T09:11:17;101814.81;;;24.35;23.89
31299;BME280;17927;52.350;13.402;2023-06-04T09:13:46;101804.41;;;24.37;23.97
31299;BME280;17927;52.350;13.402;2023-06-04T09:16:11;101818.63;;;24.41;24.89
31299;BME280;17927;52.350;13.402;2023-06-04T09:18:37;101809.09;;;24.43;24.43
31299;BME280;17927;52.350;13.402;2023-06-04T09:21:08;101815.69;;;24.49;24.04
31299;BME280;17927;52.350;13.402;2023-06-04T09:26:08;101815.47;;;24.57;24.81
31299;BME280;17927;52.350;13.402;2023-06-04T09:28:34;101814.84;;;24.62;24.41
31299;BME280;17927;52.350;13.402;2023-06-04T09:31:00;101816.34;;;24.65;24.11
31299;BME280;17927;52.350;13.402;2023-06-04T09:33:25;101813.16;;;24.68;24.33
31299;BME280;17927;52.350;13.402;2023-06-04T09:35:58;101806.16;;;24.72;24.00
31299;BME280;17927;52.350;13.402;2023-06-04T09:38:33;101806.59;;;24.75;24.72
31299;BME280;17927;52.350;13.402;2023-06-04T09:40:58;101810.22;;;24.76;24.54
31299;BME280;17927;52.350;13.402;2023-06-04T09:43:25;101804.47;;;24.77;24.23
31299;BME280;17927;52.350;13.402;2023-06-04T09:45:50;101805.31;;;24.78;24.23
31299;BME280;17927;52.350;13.402;2023-06-04T09:48:20;101801.28;;;24.81;23.82
31299;BME280;17927;52.350;13.402;2023-06-04T09:50:46;101798.94;;;24.84;23.61
31299;BME280;17927;52.350;13.402;2023-06-04T09:53:19;101811.25;;;24.88;23.70
31299;BME280;17927;52.350;13.402;2023-06-04T09:56:01;101798.94;;;24.91;23.83
31299;BME280;17927;52.350;13.402;2023-06-04T09:58:28;101793.59;;;24.96;23.92
31299;BME280;17927;52.350;13.402;2023-06-04T10:00:55;101795.31;;;25.04;23.67
31299;BME280;17927;52.350;13.402;2023-06-04T10:03:23;101797.00;;;25.12;23.69
31299;BME280;17927;52.350;13.402;2023-06-04T10:05:52;101792.75;;;25.16;23.74
31299;BME280;17927;52.350;13.402;2023-06-04T10:08:18;101794.84;;;25.20;23.42
31299;BME280;17927;52.350;13.402;2023-06-04T10:10:44;101799.94;;;25.23;23.82
31299;BME280;17927;52.350;13.402;2023-06-04T10:13:19;101795.06;;;25.26;24.55
31299;BME280;17927;52.350;13.402;2023-06-04T10:15:45;101794.63;;;25.29;24.85
31299;BME280;17927;52.350;13.402;2023-06-04T10:18:11;101793.97;;;25.33;24.59
31299;BME280;17927;52.350;13.402;2023-06-04T10:20:39;101799.91;;;25.37;23.90
31299;BME280;17927;52.350;13.402;2023-06-04T10:23:06;101803.09;;;25.41;23.48
31299;BME280;17927;52.350;13.402;2023-06-04T10:25:34;101809.09;;;25.44;23.78
31299;BME280;17927;52.350;13.402;2023-06-04T10:28:00;101798.63;;;25.46;23.14
31299;BME280;17927;52.350;13.402;2023-06-04T10:30:25;101804.59;;;25.50;22.77
31299;BME280;17927;52.350;13.402;2023-06-04T10:32:52;101801.41;;;25.53;22.75
31299;BME280;17927;52.350;13.402;2023-06-04T10:35:29;101786.91;;;25.58;22.95
31299;BME280;17927;52.350;13.402;2023-06-04T10:38:05;101791.38;;;25.59;22.90
31299;BME280;17927;52.350;13.402;2023-06-04T10:40:32;101784.53;;;25.61;22.93
31299;BME280;17927;52.350;13.402;2023-06-04T10:43:04;101794.94;;;25.66;23.13
31299;BME280;17927;52.350;13.402;2023-06-04T10:45:30;101791.75;;;25.69;23.21
31299;BME280;17927;52.350;13.402;2023-06-04T10:48:07;101782.59;;;25.75;23.49
31299;BME280;17927;52.350;13.402;2023-06-04T10:50:33;101784.88;;;25.78;22.89
31299;BME280;17927;52.350;13.402;2023-06-04T10:52:59;101792.31;;;25.84;23.09
31299;BME280;17927;52.350;13.402;2023-06-04T10:55:29;101784.41;;;25.88;23.46
31299;BME280;17927;52.350;13.402;2023-06-04T10:57:55;101784.84;;;25.92;23.42
31299;BME280;17927;52.350;13.402;2023-06-04T11:00:22;101783.94;;;25.98;23.33
31299;BME280;17927;52.350;13.402;2023-06-04T11:02:54;101778.16;;;26.06;23.26
31299;BME280;17927;52.350;13.402;2023-06-04T11:05:36;101770.69;;;26.13;23.27
31299;BME280;17927;52.350;13.402;2023-06-04T11:08:03;101778.94;;;26.20;22.65
31299;BME280;17927;52.350;13.402;2023-06-04T11:10:37;101775.91;;;26.28;22.40
31299;BME280;17927;52.350;13.402;2023-06-04T11:13:03;101774.78;;;26.36;22.47
31299;BME280;17927;52.350;13.402;2023-06-04T11:18:04;101778.09;;;26.52;22.63
31299;BME280;17927;52.350;13.402;2023-06-04T11:20:30;101778.66;;;26.60;23.33
31299;BME280;17927;52.350;13.402;2023-06-04T11:22:56;101780.28;;;26.68;22.88
31299;BME280;17927;52.350;13.402;2023-06-04T11:25:23;101771.28;;;26.73;22.11
31299;BME280;17927;52.350;13.402;2023-06-04T11:27:52;101765.94;;;26.78;21.96
31299;BME280;17927;52.350;13.402;2023-06-04T11:30:18;101771.03;;;26.81;21.55
31299;BME280;17927;52.350;13.402;2023-06-04T11:32:44;101770.38;;;26.86;21.82
31299;BME280;17927;52.350;13.402;2023-06-04T11:35:09;101768.59;;;26.92;22.24
31299;BME280;17927;52.350;13.402;2023-06-04T11:37:37;101763.59;;;27.00;22.06
31299;BME280;17927;52.350;13.402;2023-06-04T11:40:03;101760.53;;;27.09;22.11
31299;BME280;17927;52.350;13.402;2023-06-04T11:42:31;101768.31;;;27.18;21.86
31299;BME280;17927;52.350;13.402;2023-06-04T11:44:57;101765.22;;;27.27;21.85
31299;BME280;17927;52.350;13.402;2023-06-04T11:47:23;101767.47;;;27.36;21.51
31299;BME280;17927;52.350;13.402;2023-06-04T11:49:54;101752.44;;;27.44;22.08
31299;BME280;17927;52.350;13.402;2023-06-04T11:52:20;101756.22;;;27.50;21.70
31299;BME280;17927;52.350;13.402;2023-06-04T11:54:45;101748.69;;;27.57;21.95
31299;BME280;17927;52.350;13.402;2023-06-04T11:57:11;101755.22;;;27.63;21.71
31299;BME280;17927;52.350;13.402;2023-06-04T11:59:36;101751.53;;;27.69;21.40
31299;BME280;17927;52.350;13.402;2023-06-04T12:02:02;101758.06;;;27.75;20.72
31299;BME280;17927;52.350;13.402;2023-06-04T12:04:30;101755.91;;;27.77;20.85
31299;BME280;17927;52.350;13.402;2023-06-04T12:06:56;101756.03;;;27.82;21.01
31299;BME280;17927;52.350;13.402;2023-06-04T12:09:24;101753.16;;;27.89;21.41
31299;BME280;17927;52.350;13.402;2023-06-04T12:11:57;101751.13;;;27.96;21.26
31299;BME280;17927;52.350;13.402;2023-06-04T12:14:23;101761.06;;;28.04;21.74
31299;BME280;17927;52.350;13.402;2023-06-04T12:16:58;101750.50;;;28.13;20.45
31299;BME280;17927;52.350;13.402;2023-06-04T12:19:24;101754.25;;;28.18;20.96
31299;BME280;17927;52.350;13.402;2023-06-04T12:22:07;101745.22;;;28.35;21.07
31299;BME280;17927;52.350;13.402;2023-06-04T12:24:33;101751.03;;;28.45;21.64
31299;BME280;17927;52.350;13.402;2023-06-04T12:27:04;101740.78;;;28.57;21.26
31299;BME280;17927;52.350;13.402;2023-06-04T12:29:30;101732.97;;;28.78;21.52
31299;BME280;17927;52.350;13.402;2023-06-04T12:32:03;101739.22;;;29.09;21.75
31299;BME280;17927;52.350;13.402;2023-06-04T12:34:30;101737.84;;;29.47;21.55
31299;BME280;17927;52.350;13.402;2023-06-04T12:36:55;101736.47;;;29.91;21.47
31299;BME280;17927;52.350;13.402;2023-06-04T12:39:20;101750.97;;;30.39;20.80
31299;BME280;17927;52.350;13.402;2023-06-04T12:41:46;101737.88;;;30.91;20.62
31299;BME280;17927;52.350;13.402;2023-06-04T12:44:11;101737.50;;;31.43;20.64